sensor_id;sensor_type;location;lat;lon;timestamp;pressure;altitude;pressure_sealevel;temperature;humidity
58072;BME280;60383;46.626;18.866;2022-11-15T00:01:34;100935.22;;;6.11;100.00
58072;BME280;60383;46.626;18.866;2022-11-15T00:04:03;100934.84;;;6.04;100.00
58072;BME280;60383;46.626;18.866;2022-11-15T00:06:28;100929.50;;;6.02;100.00
58072;BME280;60383;46.626;18.866;2022-11-15T00:08:54;100925.31;;;6.10;100.00
58072;BME280;60383;46.626;18.866;2022-11-15T00:11:20;100922.13;;;6.16;100.00
58072;BME280;60383;46.626;18.866;2022-11-15T00:13:45;100925.19;;;6.11;100.00
58072;BME280;60383;46.626;18.866;2022-11-15T00:16:11;100925.56;;;6.06;100.00
58072;BME280;60383;46.626;18.866;2022-11-15T00:18:37;100923.50;;;6.10;100.00
58072;BME280;60383;46.626;18.866;2022-11-15T00:21:05;100931.28;;;6.15;100.00
58072;BME280;60383;46.626;18.866;2022-11-15T00:23:32;100924.63;;;6.19;100.00
58072;BME280;60383;46.626;18.866;2022-11-15T00:25:58;100924.75;;;6.17;100.00
58072;BME280;60383;46.626;18.866;2022-11-15T00:28:24;100917.69;;;6.15;100.00
58072;BME280;60383;46.626;18.866;2022-11-15T00:30:49;100923.50;;;6.10;100.00
58072;BME280;60383;46.626;18.866;2022-11-15T00:33:15;100923.00;;;5.92;100.00
58072;BME280;60383;46.626;18.866;2022-11-15T00:35:40;100925.75;;;5.79;100.00
58072;BME280;60383;46.626;18.866;2022-11-15T00:38:06;100916.41;;;5.83;100.00
58072;BME280;60383;46.626;18.866;2022-11-15T00:40:31;100914.41;;;5.85;100.00
58072;BME280;60383;46.626;18.866;2022-11-15T00:42:57;100916.78;;;6.03;100.00
58072;BME280;60383;46.626;18.866;2022-11-15T00:45:24;100916.88;;;6.01;100.00
58072;BME280;60383;46.626;18.866;2022-11-15T00:47:50;100908.28;;;5.95;100.00
58072;BME280;60383;46.626;18.866;2022-11-15T00:50:16;100907.41;;;6.07;100.00
58072;BME280;60383;46.626;18.866;2022-11-15T00:52:41;100898.59;;;6.03;100.00
58072;BME280;60383;46.626;18.866;2022-11-15T00:55:13;100899.00;;;6.10;100.00
58072;BME280;60383;46.626;18.866;2022-11-15T00:57:39;100896.94;;;6.14;100.00
58072;BME280;60383;46.626;18.866;2022-11-15T01:00:07;100895.97;;;6.26;100.00
58072;BME280;60383;46.626;18.866;2022-11-15T01:02:34;100880.19;;;6.07;100.00
58072;BME280;60383;46.626;18.866;2022-11-15T01:04:59;100875.00;;;6.04;100.00
58072;BME280;60383;46.626;18.866;2022-11-15T01:07:24;100882.78;;;6.08;100.00
58072;BME280;60383;46.626;18.866;2022-11-15T01:09:50;100885.00;;;6.03;100.00
58072;BME280;60383;46.626;18.866;2022-11-15T01:12:15;100881.31;;;6.04;100.00
58072;BME280;60383;46.626;18.866;2022-11-15T01:14:41;100870.38;;;6.17;100.00
58072;BME280;60383;46.626;18.866;2022-11-15T01:17:07;100885.88;;;6.04;100.00
58072;BME280;60383;46.626;18.866;2022-11-15T01:19:33;100872.44;;;5.89;100.00
58072;BME280;60383;46.626;18.866;2022-11-15T01:21:58;100884.13;;;5.79;100.00
58072;BME280;60383;46.626;18.866;2022-11-15T01:24:23;100880.22;;;5.94;100.00
58072;BME280;60383;46.626;18.866;2022-11-15T01:26:49;100876.78;;;5.92;100.00
58072;BME280;60383;46.626;18.866;2022-11-15T01:29:14;100868.94;;;6.00;100.00
58072;BME280;60383;46.626;18.866;2022-11-15T01:31:39;100876.44;;;5.97;100.00
58072;BME280;60383;46.626;18.866;2022-11-15T01:34:05;100882.28;;;6.03;100.00
58072;BME280;60383;46.626;18.866;2022-11-15T01:36:30;100878.81;;;6.01;100.00
58072;BME280;60383;46.626;18.866;2022-11-15T01:38:57;100885.00;;;6.03;100.00
58072;BME280;60383;46.626;18.866;2022-11-15T01:41:25;100880.31;;;6.05;100.00
58072;BME280;60383;46.626;18.866;2022-11-15T01:43:53;100867.34;;;6.09;100.00
58072;BME280;60383;46.626;18.866;2022-11-15T01:46:32;100864.28;;;6.14;100.00
58072;BME280;60383;46.626;18.866;2022-11-15T01:49:03;100854.13;;;6.04;100.00
58072;BME280;60383;46.626;18.866;2022-11-15T01:51:32;100841.84;;;5.99;100.00
58072;BME280;60383;46.626;18.866;2022-11-15T01:54:10;100838.56;;;6.18;100.00
58072;BME280;60383;46.626;18.866;2022-11-15T01:56:43;100834.53;;;6.23;100.00
58072;BME280;60383;46.626;18.866;2022-11-15T01:59:11;100816.34;;;6.24;100.00
58072;BME280;60383;46.626;18.866;2022-11-15T02:01:38;100817.72;;;6.30;100.00
58072;BME280;60383;46.626;18.866;2022-11-15T02:04:11;100815.09;;;6.17;100.00
58072;BME280;60383;46.626;18.866;2022-11-15T02:06:38;100808.38;;;6.10;100.00
58072;BME280;60383;46.626;18.866;2022-11-15T02:09:05;100802.81;;;6.11;100.00
58072;BME280;60383;46.626;18.866;2022-11-15T02:11:31;100802.47;;;6.16;100.00
58072;BME280;60383;46.626;18.866;2022-11-15T02:13:57;100804.66;;;5.99;100.00
58072;BME280;60383;46.626;18.866;2022-11-15T02:35:02;100803.88;;;5.97;100.00
58072;BME280;60383;46.626;18.866;2022-11-15T02:40:20;100791.25;;;5.96;100.00
58072;BME280;60383;46.626;18.866;2022-11-15T02:42:57;100811.03;;;5.98;100.00
58072;BME280;60383;46.626;18.866;2022-11-15T02:45:50;100808.41;;;5.85;100.00
58072;BME280;60383;46.626;18.866;2022-11-15T02:48:17;100796.81;;;5.95;100.00
58072;BME280;60383;46.626;18.866;2022-11-15T02:50:43;100792.84;;;5.87;100.00
58072;BME280;60383;46.626;18.866;2022-11-15T02:53:09;100795.53;;;6.00;100.00
58072;BME280;60383;46.626;18.866;2022-11-15T02:55:41;100803.03;;;5.97;100.00
58072;BME280;60383;46.626;18.866;2022-11-15T03:11:16;100812.97;;;6.09;100.00
58072;BME280;60383;46.626;18.866;2022-11-15T03:18:59;100798.13;;;6.02;100.00
58072;BME280;60383;46.626;18.866;2022-11-15T03:21:28;100795.13;;;6.05;100.00
58072;BME280;60383;46.626;18.866;2022-11-15T03:23:58;100784.03;;;6.08;100.00
58072;BME280;60383;46.626;18.866;2022-11-15T03:26:27;100783.34;;;6.17;100.00
58072;BME280;60383;46.626;18.866;2022-11-15T03:28:58;100783.69;;;6.13;100.00
58072;BME280;60383;46.626;18.866;2022-11-15T03:31:30;100782.94;;;6.11;100.00
58072;BME280;60383;46.626;18.866;2022-11-15T03:34:25;100792.13;;;6.21;100.00
58072;BME280;60383;46.626;18.866;2022-11-15T03:36:52;100771.47;;;6.30;100.00
58072;BME280;60383;46.626;18.866;2022-11-15T03:39:18;100763.69;;;6.25;100.00
58072;BME280;60383;46.626;18.866;2022-11-15T03:45:03;100758.22;;;6.14;100.00
58072;BME280;60383;46.626;18.866;2022-11-15T03:47:33;100756.75;;;6.21;100.00
58072;BME280;60383;46.626;18.866;2022-11-15T03:50:04;100755.25;;;6.17;100.00
58072;BME280;60383;46.626;18.866;2022-11-15T03:52:33;100757.59;;;6.10;100.00
58072;BME280;60383;46.626;18.866;2022-11-15T03:55:01;100749.66;;;6.07;100.00
58072;BME280;60383;46.626;18.866;2022-11-15T03:57:28;100747.09;;;6.17;100.00
58072;BME280;60383;46.626;18.866;2022-11-15T03:59:53;100746.59;;;6.12;100.00
58072;BME280;60383;46.626;18.866;2022-11-15T04:02:19;100748.56;;;6.10;100.00
58072;BME280;60383;46.626;18.866;2022-11-15T04:04:45;100748.19;;;6.03;100.00
58072;BME280;60383;46.626;18.866;2022-11-15T04:07:10;100751.00;;;6.01;100.00
58072;BME280;60383;46.626;18.866;2022-11-15T04:09:35;100750.53;;;6.07;100.00
58072;BME280;60383;46.626;18.866;2022-11-15T04:12:21;100759.72;;;5.82;100.00
58072;BME280;60383;46.626;18.866;2022-11-15T04:14:56;100764.56;;;5.90;100.00
58072;BME280;60383;46.626;18.866;2022-11-15T04:17:38;100767.53;;;5.87;100.00
58072;BME280;60383;46.626;18.866;2022-11-15T04:20:05;100767.53;;;5.98;100.00
58072;BME280;60383;46.626;18.866;2022-11-15T04:22:52;100752.19;;;5.86;100.00
58072;BME280;60383;46.626;18.866;2022-11-15T04:25:44;100754.78;;;5.87;100.00
58072;BME280;60383;46.626;18.866;2022-11-15T04:28:11;100752.75;;;5.78;100.00
58072;BME280;60383;46.626;18.866;2022-11-15T04:30:36;100739.59;;;5.96;100.00
58072;BME280;60383;46.626;18.866;2022-11-15T04:33:02;100733.84;;;6.01;100.00
58072;BME280;60383;46.626;18.866;2022-11-15T04:35:28;100733.00;;;6.00;100.00
58072;BME280;60383;46.626;18.866;2022-11-15T04:37:55;100738.28;;;6.02;100.00
58072;BME280;60383;46.626;18.866;2022-11-15T04:40:21;100733.13;;;6.10;100.00
58072;BME280;60383;46.626;18.866;2022-11-15T04:42:46;100738.78;;;6.07;100.00
58072;BME280;60383;46.626;18.866;2022-11-15T04:45:11;100723.59;;;6.16;100.00
58072;BME280;60383;46.626;18.866;2022-11-15T04:47:37;100733.13;;;6.10;100.00
58072;BME280;60383;46.626;18.866;2022-11-15T04:50:03;100737.94;;;6.18;100.00
58072;BME280;60383;46.626;18.866;2022-11-15T04:52:28;100737.19;;;6.04;100.00
58072;BME280;60383;46.626;18.866;2022-11-15T04:54:54;100732.84;;;6.02;100.00
58072;BME280;60383;46.626;18.866;2022-11-15T04:57:19;100739.91;;;6.04;100.00
58072;BME280;60383;46.626;18.866;2022-11-15T04:59:45;100737.06;;;6.06;100.00
58072;BME280;60383;46.626;18.866;2022-11-15T05:02:10;100722.25;;;6.21;100.00
58072;BME280;60383;46.626;18.866;2022-11-15T05:04:35;100720.16;;;6.25;100.00
58072;BME280;60383;46.626;18.866;2022-11-15T05:07:01;100714.94;;;6.22;100.00
58072;BME280;60383;46.626;18.866;2022-11-15T05:09:27;100717.19;;;6.17;100.00
58072;BME280;60383;46.626;18.866;2022-11-15T05:11:52;100740.03;;;6.03;100.00
58072;BME280;60383;46.626;18.866;2022-11-15T05:14:18;100739.41;;;6.11;100.00
58072;BME280;60383;46.626;18.866;2022-11-15T05:16:43;100731.16;;;6.23;100.00
58072;BME280;60383;46.626;18.866;2022-11-15T05:19:09;100734.13;;;6.20;100.00
58072;BME280;60383;46.626;18.866;2022-11-15T05:21:35;100729.56;;;6.21;100.00
58072;BME280;60383;46.626;18.866;2022-11-15T05:24:00;100731.88;;;6.26;100.00
58072;BME280;60383;46.626;18.866;2022-11-15T05:26:26;100733.50;;;6.28;100.00
58072;BME280;60383;46.626;18.866;2022-11-15T05:28:55;100730.41;;;6.33;100.00
58072;BME280;60383;46.626;18.866;2022-11-15T05:31:21;100738.94;;;6.28;100.00
58072;BME280;60383;46.626;18.866;2022-11-15T05:33:46;100740.41;;;6.10;100.00
58072;BME280;60383;46.626;18.866;2022-11-15T05:38:51;100735.00;;;6.21;100.00
58072;BME280;60383;46.626;18.866;2022-11-15T05:41:19;100726.84;;;6.21;100.00
58072;BME280;60383;46.626;18.866;2022-11-15T05:43:46;100720.38;;;6.22;100.00
58072;BME280;60383;46.626;18.866;2022-11-15T05:46:13;100714.94;;;6.22;100.00
58072;BME280;60383;46.626;18.866;2022-11-15T05:48:41;100719.53;;;6.21;100.00
58072;BME280;60383;46.626;18.866;2022-11-15T05:51:08;100717.03;;;6.18;100.00
58072;BME280;60383;46.626;18.866;2022-11-15T05:53:34;100725.06;;;6.08;100.00
58072;BME280;60383;46.626;18.866;2022-11-15T05:56:03;100736.19;;;6.05;100.00
58072;BME280;60383;46.626;18.866;2022-11-15T05:58:31;100736.81;;;6.09;100.00
58072;BME280;60383;46.626;18.866;2022-11-15T06:00:57;100739.41;;;6.11;100.00
58072;BME280;60383;46.626;18.866;2022-11-15T06:03:23;100740.66;;;6.06;100.00
58072;BME280;60383;46.626;18.866;2022-11-15T06:05:48;100739.19;;;6.14;100.00
58072;BME280;60383;46.626;18.866;2022-11-15T06:08:13;100725.59;;;6.25;100.00
58072;BME280;60383;46.626;18.866;2022-11-15T06:10:39;100720.28;;;6.35;100.00
58072;BME280;60383;46.626;18.866;2022-11-15T06:13:04;100733.88;;;6.35;100.00
58072;BME280;60383;46.626;18.866;2022-11-15T06:15:32;100735.25;;;6.41;100.00
58072;BME280;60383;46.626;18.866;2022-11-15T06:17:58;100732.91;;;6.36;100.00
58072;BME280;60383;46.626;18.866;2022-11-15T06:20:25;100726.56;;;6.35;100.00
58072;BME280;60383;46.626;18.866;2022-11-15T06:22:50;100718.19;;;6.27;100.00
58072;BME280;60383;46.626;18.866;2022-11-15T06:25:16;100717.56;;;6.35;100.00
58072;BME280;60383;46.626;18.866;2022-11-15T06:27:41;100720.50;;;6.32;99.87
58072;BME280;60383;46.626;18.866;2022-11-15T06:30:07;100727.31;;;6.37;100.00
58072;BME280;60383;46.626;18.866;2022-11-15T06:32:32;100729.56;;;6.32;100.00
58072;BME280;60383;46.626;18.866;2022-11-15T06:34:58;100728.19;;;6.27;100.00
58072;BME280;60383;46.626;18.866;2022-11-15T06:37:23;100724.47;;;6.28;100.00
58072;BME280;60383;46.626;18.866;2022-11-15T06:39:48;100725.84;;;6.33;100.00
58072;BME280;60383;46.626;18.866;2022-11-15T06:42:14;100728.44;;;6.23;100.00
58072;BME280;60383;46.626;18.866;2022-11-15T06:44:39;100734.38;;;6.29;100.00
58072;BME280;60383;46.626;18.866;2022-11-15T06:47:05;100736.34;;;6.27;100.00
58072;BME280;60383;46.626;18.866;2022-11-15T06:49:30;100723.50;;;6.29;100.00
58072;BME280;60383;46.626;18.866;2022-11-15T06:51:55;100731.28;;;6.45;99.05
58072;BME280;60383;46.626;18.866;2022-11-15T06:54:21;100734.00;;;6.45;99.51
58072;BME280;60383;46.626;18.866;2022-11-15T06:56:47;100737.00;;;6.42;99.95
58072;BME280;60383;46.626;18.866;2022-11-15T06:59:12;100728.94;;;6.40;99.96
58072;BME280;60383;46.626;18.866;2022-11-15T07:01:38;100727.59;;;6.34;99.63
58072;BME280;60383;46.626;18.866;2022-11-15T07:04:03;100726.34;;;6.38;98.55
58072;BME280;60383;46.626;18.866;2022-11-15T07:06:29;100722.38;;;6.43;99.05
58072;BME280;60383;46.626;18.866;2022-11-15T07:08:54;100719.91;;;6.39;99.29
58072;BME280;60383;46.626;18.866;2022-11-15T07:11:19;100714.34;;;6.41;99.99
58072;BME280;60383;46.626;18.866;2022-11-15T07:13:45;100711.00;;;6.49;98.30
58072;BME280;60383;46.626;18.866;2022-11-15T07:16:10;100705.34;;;6.41;98.75
58072;BME280;60383;46.626;18.866;2022-11-15T07:18:37;100705.81;;;6.34;99.74
58072;BME280;60383;46.626;18.866;2022-11-15T07:21:04;100709.78;;;6.42;98.40
58072;BME280;60383;46.626;18.866;2022-11-15T07:23:30;100712.50;;;6.42;99.57
58072;BME280;60383;46.626;18.866;2022-11-15T07:25:57;100701.97;;;6.48;98.86
58072;BME280;60383;46.626;18.866;2022-11-15T07:28:24;100700.63;;;6.31;99.63
58072;BME280;60383;46.626;18.866;2022-11-15T07:30:49;100713.59;;;6.39;99.69
58072;BME280;60383;46.626;18.866;2022-11-15T07:33:14;100710.66;;;6.31;100.00
58072;BME280;60383;46.626;18.866;2022-11-15T07:35:40;100714.72;;;6.48;99.24
58072;BME280;60383;46.626;18.866;2022-11-15T07:38:05;100710.50;;;6.44;98.47
58072;BME280;60383;46.626;18.866;2022-11-15T07:40:31;100708.41;;;6.47;98.44
58072;BME280;60383;46.626;18.866;2022-11-15T07:43:04;100709.03;;;6.51;97.67
58072;BME280;60383;46.626;18.866;2022-11-15T07:45:30;100707.66;;;6.34;98.82
58072;BME280;60383;46.626;18.866;2022-11-15T07:47:56;100713.09;;;6.34;99.62
58072;BME280;60383;46.626;18.866;2022-11-15T07:50:23;100709.88;;;6.40;99.01
58072;BME280;60383;46.626;18.866;2022-11-15T07:52:57;100704.47;;;6.51;98.50
58072;BME280;60383;46.626;18.866;2022-11-15T07:55:23;100701.25;;;6.58;97.82
58072;BME280;60383;46.626;18.866;2022-11-15T07:57:49;100697.38;;;6.71;97.39
58072;BME280;60383;46.626;18.866;2022-11-15T08:00:15;100690.72;;;6.64;98.05
58072;BME280;60383;46.626;18.866;2022-11-15T08:02:41;100688.25;;;6.61;97.98
58072;BME280;60383;46.626;18.866;2022-11-15T08:05:07;100681.03;;;6.71;96.93
58072;BME280;60383;46.626;18.866;2022-11-15T08:07:33;100687.84;;;6.77;96.49
58072;BME280;60383;46.626;18.866;2022-11-15T08:09:58;100684.38;;;6.75;96.64
58072;BME280;60383;46.626;18.866;2022-11-15T08:12:27;100687.00;;;6.65;97.02
58072;BME280;60383;46.626;18.866;2022-11-15T08:14:54;100681.78;;;6.74;97.17
58072;BME280;60383;46.626;18.866;2022-11-15T08:17:19;100684.16;;;6.78;96.91
58072;BME280;60383;46.626;18.866;2022-11-15T08:19:44;100685.63;;;6.71;96.76
58072;BME280;60383;46.626;18.866;2022-11-15T08:22:10;100683.44;;;6.65;97.01
58072;BME280;60383;46.626;18.866;2022-11-15T08:24:35;100675.59;;;6.71;96.66
58072;BME280;60383;46.626;18.866;2022-11-15T08:27:01;100675.00;;;6.79;96.83
58072;BME280;60383;46.626;18.866;2022-11-15T08:29:26;100680.53;;;6.78;96.97
58072;BME280;60383;46.626;18.866;2022-11-15T08:31:54;100674.34;;;6.87;97.23
58072;BME280;60383;46.626;18.866;2022-11-15T08:34:20;100671.75;;;6.74;97.15
58072;BME280;60383;46.626;18.866;2022-11-15T08:36:46;100685.41;;;6.63;96.88
58072;BME280;60383;46.626;18.866;2022-11-15T08:39:11;100683.63;;;6.73;97.16
58072;BME280;60383;46.626;18.866;2022-11-15T08:41:38;100676.47;;;6.61;97.22
58072;BME280;60383;46.626;18.866;2022-11-15T08:44:03;100672.81;;;6.50;98.50
58072;BME280;60383;46.626;18.866;2022-11-15T08:46:29;100673.38;;;6.65;98.43
58072;BME280;60383;46.626;18.866;2022-11-15T08:48:54;100668.56;;;6.46;99.00
58072;BME280;60383;46.626;18.866;2022-11-15T08:51:19;100676.84;;;6.67;98.64
58072;BME280;60383;46.626;18.866;2022-11-15T08:53:45;100677.00;;;6.54;98.86
58072;BME280;60383;46.626;18.866;2022-11-15T08:56:12;100674.41;;;6.30;99.79
58072;BME280;60383;46.626;18.866;2022-11-15T08:58:38;100678.22;;;6.39;99.22
58072;BME280;60383;46.626;18.866;2022-11-15T09:01:04;100677.50;;;6.37;99.00
58072;BME280;60383;46.626;18.866;2022-11-15T09:03:30;100682.31;;;6.45;99.52
58072;BME280;60383;46.626;18.866;2022-11-15T09:05:57;100687.88;;;6.43;99.74
58072;BME280;60383;46.626;18.866;2022-11-15T09:08:24;100681.06;;;6.60;98.60
58072;BME280;60383;46.626;18.866;2022-11-15T09:10:50;100694.44;;;6.41;99.14
58072;BME280;60383;46.626;18.866;2022-11-15T09:13:16;100698.63;;;6.56;99.00
58072;BME280;60383;46.626;18.866;2022-11-15T09:15:42;100684.91;;;6.46;98.98
58072;BME280;60383;46.626;18.866;2022-11-15T09:18:07;100671.31;;;6.58;99.36
58072;BME280;60383;46.626;18.866;2022-11-15T09:20:33;100667.34;;;6.62;99.27
58072;BME280;60383;46.626;18.866;2022-11-15T09:23:00;100671.16;;;6.82;97.81
58072;BME280;60383;46.626;18.866;2022-11-15T09:25:26;100666.81;;;6.79;97.50
58072;BME280;60383;46.626;18.866;2022-11-15T09:27:51;100667.44;;;6.71;97.38
58072;BME280;60383;46.626;18.866;2022-11-15T09:30:17;100665.50;;;6.62;97.84
58072;BME280;60383;46.626;18.866;2022-11-15T09:32:42;100660.78;;;6.53;98.64
58072;BME280;60383;46.626;18.866;2022-11-15T09:35:07;100656.81;;;6.68;98.21
58072;BME280;60383;46.626;18.866;2022-11-15T09:37:33;100658.44;;;6.48;100.00
58072;BME280;60383;46.626;18.866;2022-11-15T09:39:58;100650.66;;;6.55;100.00
58072;BME280;60383;46.626;18.866;2022-11-15T09:45:32;100653.81;;;6.71;98.55
58072;BME280;60383;46.626;18.866;2022-11-15T09:48:28;100637.78;;;6.68;98.36
58072;BME280;60383;46.626;18.866;2022-11-15T09:50:58;100635.53;;;6.74;99.23
58072;BME280;60383;46.626;18.866;2022-11-15T09:53:35;100625.72;;;6.82;98.69
58072;BME280;60383;46.626;18.866;2022-11-15T09:56:15;100626.84;;;6.80;98.44
58072;BME280;60383;46.626;18.866;2022-11-15T10:01:17;100617.31;;;6.74;98.96
58072;BME280;60383;46.626;18.866;2022-11-15T10:03:45;100608.63;;;6.92;98.51
58072;BME280;60383;46.626;18.866;2022-11-15T10:06:25;100593.28;;;7.12;98.11
58072;BME280;60383;46.626;18.866;2022-11-15T10:08:53;100587.00;;;7.11;97.73
58072;BME280;60383;46.626;18.866;2022-11-15T10:11:24;100594.09;;;7.02;97.28
58072;BME280;60383;46.626;18.866;2022-11-15T10:13:53;100599.84;;;7.21;97.31
58072;BME280;60383;46.626;18.866;2022-11-15T10:22:28;100581.72;;;6.98;98.60
58072;BME280;60383;46.626;18.866;2022-11-15T10:25:14;100573.38;;;7.11;97.75
58072;BME280;60383;46.626;18.866;2022-11-15T10:27:42;100574.38;;;7.31;97.78
58072;BME280;60383;46.626;18.866;2022-11-15T10:30:15;100576.59;;;7.38;98.08
58072;BME280;60383;46.626;18.866;2022-11-15T10:32:43;100582.97;;;7.27;98.48
58072;BME280;60383;46.626;18.866;2022-11-15T10:35:23;100585.84;;;7.35;97.99
58072;BME280;60383;46.626;18.866;2022-11-15T10:37:48;100600.25;;;7.04;98.46
58072;BME280;60383;46.626;18.866;2022-11-15T10:40:22;100594.88;;;7.14;100.00
58072;BME280;60383;46.626;18.866;2022-11-15T10:43:04;100591.16;;;6.94;99.11
58072;BME280;60383;46.626;18.866;2022-11-15T10:45:31;100578.47;;;7.04;99.28
58072;BME280;60383;46.626;18.866;2022-11-15T10:50:48;100592.28;;;6.92;99.97
58072;BME280;60383;46.626;18.866;2022-11-15T10:53:26;100575.72;;;7.16;99.45
58072;BME280;60383;46.626;18.866;2022-11-15T10:55:57;100578.56;;;7.35;99.63
58072;BME280;60383;46.626;18.866;2022-11-15T11:00:54;100581.81;;;7.50;97.56
58072;BME280;60383;46.626;18.866;2022-11-15T11:03:36;100587.59;;;7.57;97.63
58072;BME280;60383;46.626;18.866;2022-11-15T11:06:14;100569.53;;;7.56;97.82
58072;BME280;60383;46.626;18.866;2022-11-15T11:08:40;100571.78;;;7.51;96.58
58072;BME280;60383;46.626;18.866;2022-11-15T11:11:06;100553.47;;;7.63;97.45
58072;BME280;60383;46.626;18.866;2022-11-15T11:13:33;100553.25;;;7.02;99.52
58072;BME280;60383;46.626;18.866;2022-11-15T11:21:18;100534.31;;;7.22;98.98
58072;BME280;60383;46.626;18.866;2022-11-15T11:24:04;100531.47;;;6.70;100.00
58072;BME280;60383;46.626;18.866;2022-11-15T11:26:46;100542.28;;;6.93;100.00
58072;BME280;60383;46.626;18.866;2022-11-15T11:40:13;100521.41;;;7.45;97.45
58072;BME280;60383;46.626;18.866;2022-11-15T11:42:44;100509.47;;;7.37;97.21
58072;BME280;60383;46.626;18.866;2022-11-15T11:48:41;100502.19;;;7.47;98.43
58072;BME280;60383;46.626;18.866;2022-11-15T11:51:38;100503.63;;;7.41;98.29
58072;BME280;60383;46.626;18.866;2022-11-15T11:54:14;100496.13;;;7.64;98.12
58072;BME280;60383;46.626;18.866;2022-11-15T11:56:44;100498.31;;;7.80;98.17
58072;BME280;60383;46.626;18.866;2022-11-15T12:01:48;100484.13;;;7.87;97.48
58072;BME280;60383;46.626;18.866;2022-11-15T12:04:30;100481.00;;;7.60;97.90
58072;BME280;60383;46.626;18.866;2022-11-15T12:12:35;100467.50;;;7.49;97.72
58072;BME280;60383;46.626;18.866;2022-11-15T12:15:14;100463.97;;;7.58;98.38
58072;BME280;60383;46.626;18.866;2022-11-15T12:17:41;100461.84;;;7.72;98.46
58072;BME280;60383;46.626;18.866;2022-11-15T12:20:27;100470.28;;;7.68;97.36
58072;BME280;60383;46.626;18.866;2022-11-15T12:26:09;100452.53;;;7.43;98.71
58072;BME280;60383;46.626;18.866;2022-11-15T12:28:56;100451.75;;;7.62;98.83
58072;BME280;60383;46.626;18.866;2022-11-15T12:31:35;100450.97;;;7.41;100.00
58072;BME280;60383;46.626;18.866;2022-11-15T12:36:40;100444.91;;;7.68;100.00
58072;BME280;60383;46.626;18.866;2022-11-15T12:39:09;100441.81;;;7.82;98.16
58072;BME280;60383;46.626;18.866;2022-11-15T12:41:40;100437.19;;;7.83;99.10
58072;BME280;60383;46.626;18.866;2022-11-15T12:44:56;100438.38;;;8.00;96.66
58072;BME280;60383;46.626;18.866;2022-11-15T12:47:03;100431.94;;;8.01;98.15
58072;BME280;60383;46.626;18.866;2022-11-15T12:59:50;100407.91;;;7.34;100.00
58072;BME280;60383;46.626;18.866;2022-11-15T13:02:41;100407.13;;;7.23;100.00
58072;BME280;60383;46.626;18.866;2022-11-15T13:22:51;100387.22;;;7.73;99.52
58072;BME280;60383;46.626;18.866;2022-11-15T13:35:58;100368.03;;;7.94;99.69
58072;BME280;60383;46.626;18.866;2022-11-15T13:40:50;100372.63;;;8.03;99.19
58072;BME280;60383;46.626;18.866;2022-11-15T13:46:16;100365.31;;;7.33;100.00
58072;BME280;60383;46.626;18.866;2022-11-15T13:48:44;100355.75;;;7.49;100.00
58072;BME280;60383;46.626;18.866;2022-11-15T13:53:55;100350.56;;;7.46;100.00
58072;BME280;60383;46.626;18.866;2022-11-15T13:56:22;100352.22;;;7.58;100.00
58072;BME280;60383;46.626;18.866;2022-11-15T13:58:48;100362.09;;;7.69;100.00
58072;BME280;60383;46.626;18.866;2022-11-15T14:01:17;100352.81;;;7.72;100.00
58072;BME280;60383;46.626;18.866;2022-11-15T14:03:58;100354.97;;;7.78;100.00
58072;BME280;60383;46.626;18.866;2022-11-15T14:06:29;100351.69;;;8.04;98.93
58072;BME280;60383;46.626;18.866;2022-11-15T14:11:52;100357.06;;;7.55;100.00
58072;BME280;60383;46.626;18.866;2022-11-15T14:14:21;100362.66;;;7.53;100.00
58072;BME280;60383;46.626;18.866;2022-11-15T14:16:50;100353.22;;;7.57;100.00
58072;BME280;60383;46.626;18.866;2022-11-15T14:22:19;100351.16;;;7.49;100.00
58072;BME280;60383;46.626;18.866;2022-11-15T14:25:19;100341.31;;;7.68;100.00
58072;BME280;60383;46.626;18.866;2022-11-15T14:28:12;100338.59;;;7.68;100.00
58072;BME280;60383;46.626;18.866;2022-11-15T14:30:39;100337.56;;;7.69;100.00
58072;BME280;60383;46.626;18.866;2022-11-15T14:35:44;100338.44;;;7.60;100.00
58072;BME280;60383;46.626;18.866;2022-11-15T14:38:11;100329.97;;;7.63;100.00
58072;BME280;60383;46.626;18.866;2022-11-15T14:40:37;100331.41;;;7.67;100.00
58072;BME280;60383;46.626;18.866;2022-11-15T14:43:03;100325.81;;;7.68;100.00
58072;BME280;60383;46.626;18.866;2022-11-15T14:45:30;100323.69;;;7.82;100.00
58072;BME280;60383;46.626;18.866;2022-11-15T14:47:55;100330.00;;;7.82;100.00
58072;BME280;60383;46.626;18.866;2022-11-15T14:50:22;100323.22;;;7.57;100.00
58072;BME280;60383;46.626;18.866;2022-11-15T14:52:48;100326.09;;;7.65;100.00
58072;BME280;60383;46.626;18.866;2022-11-15T14:55:27;100325.63;;;7.41;100.00
58072;BME280;60383;46.626;18.866;2022-11-15T14:58:00;100325.50;;;7.52;100.00
58072;BME280;60383;46.626;18.866;2022-11-15T15:00:27;100315.16;;;7.56;100.00
58072;BME280;60383;46.626;18.866;2022-11-15T15:02:55;100314.06;;;7.58;100.00
58072;BME280;60383;46.626;18.866;2022-11-15T15:05:33;100319.78;;;7.55;100.00
58072;BME280;60383;46.626;18.866;2022-11-15T15:07:59;100318.03;;;7.54;100.00
58072;BME280;60383;46.626;18.866;2022-11-15T15:10:28;100325.06;;;7.57;100.00
58072;BME280;60383;46.626;18.866;2022-11-15T15:12:56;100321.25;;;7.79;100.00
58072;BME280;60383;46.626;18.866;2022-11-15T15:15:24;100320.75;;;7.54;100.00
58072;BME280;60383;46.626;18.866;2022-11-15T15:17:51;100315.16;;;7.56;100.00
58072;BME280;60383;46.626;18.866;2022-11-15T15:20:16;100315.44;;;7.43;100.00
58072;BME280;60383;46.626;18.866;2022-11-15T15:22:42;100314.31;;;7.55;100.00